Time;durP1;ratioP1;P1;durP2;ratioP2;P2;SDS_P1;SDS_P2;PMS_P1;PMS_P2;Temp;Humidity;BMP_temperature;BMP_pressure;BME280_temperature;BME280_humidity;BME280_pressure;Samples;Min_cycle;Max_cycle;Signal;HPM_P1;HPM_P2
2021/07/11 00:00:49;;;;;;;22.40;20.13;;;17.20;99.90;;;;;;5095404;28;20180;-81
2021/07/11 00:03:15;;;;;;;23.03;20.63;;;17.20;99.90;;;;;;5079957;28;20202;-81
2021/07/11 00:05:41;;;;;;;23.10;20.70;;;17.20;99.90;;;;;;5072521;28;20212;-82
2021/07/11 00:08:07;;;;;;;23.73;21.20;;;17.20;99.90;;;;;;5060910;28;20189;-81
2021/07/11 00:10:33;;;;;;;23.80;21.30;;;17.20;99.90;;;;;;5077557;28;20188;-81
2021/07/11 00:12:59;;;;;;;24.30;21.67;;;17.20;99.90;;;;;;5094546;28;20208;-81
2021/07/11 00:15:28;;;;;;;25.00;22.40;;;17.20;99.90;;;;;;5075157;28;20451;-81
2021/07/11 00:17:55;;;;;;;26.10;23.40;;;17.10;99.90;;;;;;5087411;28;20456;-81
2021/07/11 00:20:22;;;;;;;25.57;22.97;;;17.10;99.90;;;;;;5089439;28;20468;-82
2021/07/11 00:22:49;;;;;;;24.10;21.67;;;17.10;99.90;;;;;;5070243;28;20774;-81
2021/07/11 00:25:15;;;;;;;27.73;24.73;;;17.10;99.90;;;;;;5092596;28;20982;-82
2021/07/11 00:27:42;;;;;;;25.10;22.50;;;17.10;99.90;;;;;;5085841;28;20815;-82
2021/07/11 00:30:09;;;;;;;25.37;22.83;;;17.10;99.90;;;;;;5088704;28;20460;-82
2021/07/11 00:32:35;;;;;;;25.27;22.70;;;17.10;99.90;;;;;;5068188;28;21126;-82
2021/07/11 00:35:00;;;;;;;26.33;23.47;;;17.20;99.90;;;;;;5070699;28;20439;-82
2021/07/11 00:37:26;;;;;;;26.93;23.70;;;17.20;99.90;;;;;;5076926;28;20250;-80
2021/07/11 00:39:52;;;;;;;24.10;21.70;;;17.20;99.90;;;;;;5069756;28;20209;-82
2021/07/11 00:42:18;;;;;;;23.30;21.00;;;17.10;99.90;;;;;;5052323;28;20550;-82
2021/07/11 00:44:44;;;;;;;24.50;21.90;;;17.20;99.90;;;;;;5071207;28;20204;-81
2021/07/11 00:47:11;;;;;;;22.90;20.50;;;17.20;99.90;;;;;;5052230;28;20584;-81
2021/07/11 00:49:37;;;;;;;23.03;20.47;;;17.20;99.90;;;;;;5070175;28;20173;-82
2021/07/11 00:52:03;;;;;;;23.23;20.83;;;17.10;99.90;;;;;;5089937;28;20430;-82
2021/07/11 00:54:29;;;;;;;23.23;20.70;;;17.10;99.90;;;;;;5071647;28;20439;-82
2021/07/11 00:56:55;;;;;;;23.77;21.10;;;17.10;99.90;;;;;;5085457;28;20201;-81
2021/07/11 00:59:22;;;;;;;23.37;21.00;;;17.10;99.90;;;;;;5070481;28;20327;-82
2021/07/11 01:01:56;;;;;;;23.10;20.60;;;17.00;99.90;;;;;;5093589;28;20531;-82
2021/07/11 01:04:30;;;;;;;24.27;21.77;;;17.10;99.90;;;;;;5073153;28;20458;-82
2021/07/11 01:07:02;;;;;;;22.43;20.23;;;17.10;99.90;;;;;;5071863;28;20435;-82
2021/07/11 01:09:36;;;;;;;22.73;20.03;;;17.10;99.90;;;;;;5091061;28;20422;-82
2021/07/11 01:12:10;;;;;;;22.40;19.23;;;17.10;99.90;;;;;;5094760;28;20476;-82
2021/07/11 01:14:37;;;;;;;22.00;19.03;;;17.00;99.90;;;;;;5081382;28;20452;-82
2021/07/11 01:17:05;;;;;;;21.10;17.67;;;17.00;99.90;;;;;;5092036;28;20415;-81
2021/07/11 01:19:40;;;;;;;20.57;18.07;;;17.00;99.90;;;;;;5063559;28;20425;-81
2021/07/11 01:22:11;;;;;;;19.73;16.33;;;17.00;99.90;;;;;;5074763;28;20430;-82
2021/07/11 01:24:40;;;;;;;18.93;16.60;;;17.00;99.90;;;;;;5047173;28;20634;-82
2021/07/11 01:27:07;;;;;;;17.70;15.80;;;17.00;99.90;;;;;;5089954;28;20416;-82
2021/07/11 01:29:32;;;;;;;18.07;14.17;;;16.90;99.90;;;;;;5084809;28;20552;-82
2021/07/11 01:31:59;;;;;;;15.40;13.80;;;16.90;99.90;;;;;;5071913;28;20454;-81
2021/07/11 01:34:26;;;;;;;16.03;14.27;;;16.90;99.90;;;;;;5049248;28;20215;-82
2021/07/11 01:36:53;;;;;;;15.97;13.40;;;16.90;99.90;;;;;;5088289;28;20423;-81
2021/07/11 01:39:19;;;;;;;15.50;13.60;;;16.90;99.90;;;;;;5053923;28;20511;-82
2021/07/11 01:41:47;;;;;;;13.87;12.47;;;16.90;99.90;;;;;;5055356;28;20424;-80
2021/07/11 01:44:13;;;;;;;15.03;13.30;;;16.80;99.90;;;;;;5083739;28;20450;-81
2021/07/11 01:46:40;;;;;;;15.60;13.10;;;16.80;99.90;;;;;;5087723;28;20419;-81
2021/07/11 01:49:06;;;;;;;14.93;13.03;;;16.80;99.90;;;;;;5084003;28;21140;-81
2021/07/11 01:51:32;;;;;;;16.23;13.13;;;16.80;99.90;;;;;;5082684;28;20434;-82
2021/07/11 01:53:58;;;;;;;18.93;13.13;;;16.70;99.90;;;;;;5067595;28;20551;-82
2021/07/11 01:56:25;;;;;;;14.40;12.87;;;16.80;99.90;;;;;;5087902;28;20426;-82
2021/07/11 01:58:51;;;;;;;16.77;14.00;;;16.70;99.90;;;;;;5094092;28;20417;-81
2021/07/11 02:01:19;;;;;;;15.23;12.93;;;16.70;99.90;;;;;;5087502;28;20425;-81
2021/07/11 02:03:45;;;;;;;16.37;13.73;;;16.70;99.90;;;;;;5084744;28;20177;-80
2021/07/11 02:06:12;;;;;;;15.90;13.40;;;16.70;99.90;;;;;;5061644;28;20946;-81
2021/07/11 02:08:41;;;;;;;16.20;13.67;;;16.70;99.90;;;;;;5088504;28;20426;-81
2021/07/11 02:11:08;;;;;;;17.00;13.80;;;16.70;99.90;;;;;;5092404;28;20430;-81
2021/07/11 02:13:54;;;;;;;18.90;14.70;;;16.70;99.90;;;;;;5079920;28;20834;-81
2021/07/11 02:16:47;;;;;;;16.43;13.83;;;16.70;99.90;;;;;;5063285;28;20525;-81
2021/07/11 02:19:15;;;;;;;19.17;14.27;;;16.70;99.90;;;;;;5087172;28;20407;-81
2021/07/11 02:21:41;;;;;;;17.80;13.50;;;16.70;99.90;;;;;;5064636;28;20485;-81
2021/07/11 02:24:08;;;;;;;20.40;14.80;;;16.60;99.90;;;;;;5074948;28;20890;-82
2021/07/11 02:26:36;;;;;;;17.80;13.67;;;16.60;99.90;;;;;;5089656;28;20419;-81
2021/07/11 02:29:05;;;;;;;15.43;13.60;;;16.60;99.90;;;;;;5093178;28;20471;-81
2021/07/11 02:31:39;;;;;;;19.00;14.57;;;16.70;99.90;;;;;;5076227;28;20406;-80
2021/07/11 02:34:06;;;;;;;20.03;14.80;;;16.60;99.90;;;;;;5093155;28;20425;-80
2021/07/11 02:36:32;;;;;;;18.87;15.00;;;16.60;99.90;;;;;;5033392;28;20434;-82
2021/07/11 02:39:14;;;;;;;21.90;15.63;;;16.60;99.90;;;;;;5091464;28;20411;-81
2021/07/11 02:41:46;;;;;;;17.57;14.63;;;16.60;99.90;;;;;;5093580;28;20508;-81
2021/07/11 02:44:13;;;;;;;20.67;15.73;;;16.60;99.90;;;;;;5093846;28;20487;-80
2021/07/11 02:46:43;;;;;;;20.17;16.23;;;16.60;99.90;;;;;;5086048;28;20427;-80
2021/07/11 02:49:12;;;;;;;21.17;15.20;;;16.60;99.90;;;;;;5084290;28;20497;-80
2021/07/11 02:51:41;;;;;;;18.33;15.17;;;16.60;99.90;;;;;;5045356;28;20438;-81
2021/07/11 02:54:09;;;;;;;17.77;15.20;;;16.60;99.90;;;;;;5068152;28;20488;-81
2021/07/11 02:56:38;;;;;;;20.40;15.50;;;16.60;99.90;;;;;;5068756;28;21108;-81
2021/07/11 02:59:08;;;;;;;23.20;17.63;;;16.60;99.90;;;;;;5092328;28;20429;-81
2021/07/11 03:01:35;;;;;;;19.97;16.60;;;16.60;99.90;;;;;;5042818;28;20423;-81
2021/07/11 03:04:02;;;;;;;21.03;17.00;;;16.60;99.90;;;;;;5085804;28;20414;-82
2021/07/11 03:06:32;;;;;;;23.90;17.47;;;16.60;99.90;;;;;;5080191;28;20723;-82
2021/07/11 03:08:58;;;;;;;20.30;16.30;;;16.60;99.90;;;;;;5091244;28;20423;-82
2021/07/11 03:11:25;;;;;;;23.70;18.93;;;16.60;99.90;;;;;;5085905;28;20415;-82
2021/07/11 03:13:53;;;;;;;22.60;17.33;;;16.50;99.90;;;;;;5090558;28;20193;-82
2021/07/11 03:16:20;;;;;;;20.13;16.60;;;16.50;99.90;;;;;;5093485;28;20418;-82
2021/07/11 03:18:48;;;;;;;23.30;17.07;;;16.50;99.90;;;;;;5077980;28;20472;-80
2021/07/11 03:21:14;;;;;;;21.40;17.90;;;16.50;99.90;;;;;;5066585;28;20431;-81
2021/07/11 03:23:41;;;;;;;22.60;16.87;;;16.50;99.90;;;;;;5087877;28;20790;-81
2021/07/11 03:26:07;;;;;;;24.77;17.07;;;16.50;99.90;;;;;;5057696;28;20459;-82
2021/07/11 03:28:35;;;;;;;22.50;17.33;;;16.50;99.90;;;;;;5091049;28;20418;-81
2021/07/11 03:31:06;;;;;;;21.50;15.50;;;16.50;99.90;;;;;;5052507;28;20430;-80
2021/07/11 03:33:37;;;;;;;20.83;16.50;;;16.50;99.90;;;;;;5073515;28;20978;-80
2021/07/11 03:36:04;;;;;;;20.80;15.90;;;16.50;99.90;;;;;;5067489;28;20415;-81
2021/07/11 03:38:42;;;;;;;19.73;16.53;;;16.50;99.90;;;;;;5095131;28;20750;-81
2021/07/11 03:41:12;;;;;;;22.77;16.93;;;16.50;99.90;;;;;;5086930;28;20418;-81
2021/07/11 03:43:40;;;;;;;21.80;17.33;;;16.50;99.90;;;;;;5072447;28;20858;-81
2021/07/11 03:46:08;;;;;;;27.90;17.47;;;16.50;99.90;;;;;;5088234;28;20501;-81
2021/07/11 03:48:53;;;;;;;20.70;15.03;;;16.50;99.90;;;;;;5089394;28;20537;-82
2021/07/11 03:51:24;;;;;;;20.33;16.60;;;16.50;99.90;;;;;;5053994;28;20419;-83
2021/07/11 03:53:54;;;;;;;21.90;16.67;;;16.50;99.90;;;;;;5078044;28;20442;-81
2021/07/11 03:56:28;;;;;;;22.77;17.20;;;16.50;99.90;;;;;;5090483;28;20437;-83
2021/07/11 03:58:56;;;;;;;22.00;17.07;;;16.50;99.90;;;;;;5049560;28;20434;-82
2021/07/11 04:01:30;;;;;;;23.93;16.83;;;16.60;99.90;;;;;;5059644;28;20438;-82
2021/07/11 04:03:58;;;;;;;20.97;16.97;;;16.50;99.90;;;;;;5032350;28;20439;-82
2021/07/11 04:06:26;;;;;;;23.03;17.83;;;16.50;99.90;;;;;;5087646;28;20971;-82
2021/07/11 04:08:55;;;;;;;18.43;16.03;;;16.50;99.90;;;;;;5042250;28;20514;-81
2021/07/11 04:11:21;;;;;;;20.47;16.40;;;16.50;99.90;;;;;;5087350;28;20429;-82
2021/07/11 04:13:47;;;;;;;23.10;16.57;;;16.50;99.90;;;;;;5095289;28;21042;-81
2021/07/11 04:16:14;;;;;;;20.20;16.30;;;16.50;99.90;;;;;;5077280;28;20180;-83
2021/07/11 04:18:45;;;;;;;18.20;14.43;;;16.50;99.90;;;;;;5076507;28;20184;-82
2021/07/11 04:21:12;;;;;;;19.90;15.70;;;16.50;99.90;;;;;;5077604;28;20439;-83
2021/07/11 04:23:38;;;;;;;18.83;15.50;;;16.50;99.90;;;;;;5037877;28;20435;-81
2021/07/11 04:26:05;;;;;;;19.10;15.20;;;16.60;99.90;;;;;;5091219;28;20450;-82
2021/07/11 04:28:36;;;;;;;20.50;16.80;;;16.60;99.90;;;;;;5075414;28;20415;-82
2021/07/11 04:31:04;;;;;;;19.07;15.70;;;16.60;99.90;;;;;;5047215;28;20453;-81
2021/07/11 04:33:31;;;;;;;20.87;16.07;;;16.60;99.90;;;;;;5073566;28;20826;-83
2021/07/11 04:35:58;;;;;;;23.93;18.50;;;16.60;99.90;;;;;;5084854;28;20845;-83
2021/07/11 04:38:24;;;;;;;22.17;17.93;;;16.60;99.90;;;;;;5070647;28;20916;-81
2021/07/11 04:40:50;;;;;;;25.10;17.47;;;16.60;99.90;;;;;;5071095;28;20411;-81
2021/07/11 04:43:17;;;;;;;24.37;18.27;;;16.60;99.90;;;;;;5060019;28;20828;-83
2021/07/11 04:45:43;;;;;;;22.77;17.10;;;16.60;99.90;;;;;;5093853;28;20223;-81
2021/07/11 04:48:11;;;;;;;19.60;16.60;;;16.60;99.90;;;;;;5059739;28;20427;-83
2021/07/11 04:50:36;;;;;;;27.27;19.13;;;16.70;99.90;;;;;;5095176;28;20765;-83
2021/07/11 04:53:02;;;;;;;24.83;17.77;;;16.60;99.90;;;;;;5053651;28;20435;-82
2021/07/11 04:55:28;;;;;;;20.60;16.50;;;16.60;99.90;;;;;;5094357;28;20212;-82
2021/07/11 04:57:53;;;;;;;22.33;16.70;;;16.70;99.90;;;;;;5090779;28;20242;-82
2021/07/11 05:00:20;;;;;;;21.97;18.13;;;16.60;99.90;;;;;;5083763;28;20207;-82
2021/07/11 05:02:46;;;;;;;21.67;17.80;;;16.60;99.90;;;;;;5093048;28;20191;-82
2021/07/11 05:05:12;;;;;;;22.40;18.37;;;16.70;99.90;;;;;;5065704;28;20455;-81
2021/07/11 05:07:37;;;;;;;24.13;17.40;;;16.70;99.90;;;;;;5072626;28;20196;-82
2021/07/11 05:10:08;;;;;;;22.50;19.03;;;16.70;99.90;;;;;;5094062;28;20305;-82
2021/07/11 05:12:35;;;;;;;23.17;17.37;;;16.70;99.90;;;;;;5070422;28;20415;-82
2021/07/11 05:15:02;;;;;;;22.93;19.00;;;16.70;99.90;;;;;;5084995;28;20446;-81
2021/07/11 05:17:27;;;;;;;21.77;18.10;;;16.80;99.90;;;;;;5094849;28;20420;-81
2021/07/11 05:19:53;;;;;;;22.40;18.70;;;16.80;99.90;;;;;;5065819;28;20848;-81
2021/07/11 05:22:19;;;;;;;23.10;18.17;;;16.80;99.90;;;;;;5061768;28;20212;-82
2021/07/11 05:24:44;;;;;;;23.90;18.73;;;16.80;99.90;;;;;;5056353;28;20264;-81
2021/07/11 05:27:10;;;;;;;22.47;18.73;;;16.80;99.90;;;;;;5066549;28;20181;-82
2021/07/11 05:29:36;;;;;;;23.47;19.07;;;16.80;99.90;;;;;;5084037;28;20218;-83
2021/07/11 05:32:03;;;;;;;25.90;20.50;;;16.80;99.90;;;;;;5087098;28;20760;-82
2021/07/11 05:34:28;;;;;;;23.13;19.37;;;16.80;99.90;;;;;;5057833;28;20197;-82
2021/07/11 05:36:54;;;;;;;26.27;20.50;;;16.80;99.90;;;;;;5079485;28;20517;-83
2021/07/11 05:39:20;;;;;;;23.60;19.47;;;16.80;99.90;;;;;;5090859;28;20180;-82
2021/07/11 05:41:46;;;;;;;24.47;19.17;;;16.80;99.90;;;;;;5092850;28;20200;-81
2021/07/11 05:44:12;;;;;;;25.40;20.60;;;16.80;99.90;;;;;;5091903;28;20292;-82
2021/07/11 05:46:38;;;;;;;29.07;20.70;;;16.90;99.90;;;;;;5082994;28;20517;-82
2021/07/11 05:49:04;;;;;;;22.83;18.97;;;16.80;99.90;;;;;;5092241;28;20415;-82
2021/07/11 05:51:30;;;;;;;26.63;19.83;;;16.90;99.90;;;;;;5062200;28;20410;-80
2021/07/11 05:53:57;;;;;;;26.50;20.57;;;16.80;99.90;;;;;;5074728;28;20469;-80
2021/07/11 05:56:22;;;;;;;29.73;20.43;;;16.90;99.90;;;;;;5093710;28;20800;-82
2021/07/11 05:58:48;;;;;;;22.77;19.43;;;16.90;99.90;;;;;;5093337;28;20440;-81
2021/07/11 06:01:13;;;;;;;24.10;20.13;;;17.00;99.90;;;;;;5078867;28;20434;-81
2021/07/11 06:03:39;;;;;;;25.90;21.40;;;17.00;99.90;;;;;;5092422;28;20204;-82
2021/07/11 06:06:06;;;;;;;29.93;22.50;;;17.00;99.90;;;;;;5062438;28;20232;-82
2021/07/11 06:08:31;;;;;;;25.37;21.57;;;17.00;99.90;;;;;;5092608;28;20185;-82
2021/07/11 06:10:57;;;;;;;27.50;21.20;;;17.00;99.90;;;;;;5070259;28;21000;-82
2021/07/11 06:13:23;;;;;;;29.03;22.23;;;17.00;99.90;;;;;;5088518;28;20184;-81
2021/07/11 06:15:50;;;;;;;25.30;21.60;;;17.00;99.90;;;;;;5091554;28;20835;-81
2021/07/11 06:18:15;;;;;;;29.30;21.73;;;17.00;99.90;;;;;;5059368;28;20509;-82
2021/07/11 06:20:41;;;;;;;24.87;21.47;;;17.00;99.90;;;;;;5078810;28;20446;-82
2021/07/11 06:23:08;;;;;;;35.47;22.57;;;17.10;99.90;;;;;;5091196;28;20188;-82
2021/07/11 06:25:34;;;;;;;27.20;23.97;;;17.10;99.90;;;;;;5092469;28;20462;-82
2021/07/11 06:28:00;;;;;;;28.97;23.90;;;17.10;99.90;;;;;;5084237;28;20434;-82
2021/07/11 06:30:26;;;;;;;29.10;22.80;;;17.10;99.90;;;;;;5084111;28;20491;-80
2021/07/11 06:32:52;;;;;;;27.80;22.63;;;17.10;99.90;;;;;;5072941;28;20424;-80
2021/07/11 06:35:22;;;;;;;25.20;21.80;;;17.20;99.90;;;;;;5088141;28;20735;-81
2021/07/11 06:37:49;;;;;;;28.40;23.20;;;17.20;99.90;;;;;;5081160;28;21052;-81
2021/07/11 06:40:17;;;;;;;27.60;22.70;;;17.20;99.90;;;;;;5093599;28;20456;-81
2021/07/11 06:42:43;;;;;;;26.90;21.37;;;17.20;99.90;;;;;;5066075;28;20778;-82
2021/07/11 06:45:11;;;;;;;30.33;25.30;;;17.20;99.90;;;;;;5086864;28;20447;-82
2021/07/11 06:47:37;;;;;;;30.23;24.73;;;17.30;99.90;;;;;;5068432;28;20414;-84
2021/07/11 06:50:06;;;;;;;31.47;24.03;;;17.30;99.90;;;;;;5069644;28;20408;-81
2021/07/11 06:52:31;;;;;;;28.33;24.07;;;17.40;99.90;;;;;;5083750;28;20918;-80
2021/07/11 06:54:57;;;;;;;26.53;22.50;;;17.40;99.90;;;;;;5040971;28;20462;-82
2021/07/11 06:57:23;;;;;;;30.10;24.97;;;17.40;99.90;;;;;;5065730;28;20277;-82
2021/07/11 06:59:48;;;;;;;28.67;23.20;;;17.40;99.90;;;;;;5091206;28;20172;-80
2021/07/11 07:02:14;;;;;;;27.57;23.27;;;17.40;99.90;;;;;;5057717;28;20268;-80
2021/07/11 07:04:40;;;;;;;28.00;22.93;;;17.40;99.90;;;;;;5096934;28;20210;-81
2021/07/11 07:07:06;;;;;;;31.67;24.73;;;17.40;99.90;;;;;;5050131;28;20481;-82
2021/07/11 07:09:32;;;;;;;28.20;23.07;;;17.50;99.90;;;;;;5093125;28;20434;-80
2021/07/11 07:11:58;;;;;;;31.80;24.50;;;17.40;99.90;;;;;;5097186;28;20415;-80
2021/07/11 07:14:24;;;;;;;29.53;24.53;;;17.50;99.90;;;;;;5065389;28;20307;-80
2021/07/11 07:16:50;;;;;;;31.20;23.63;;;17.50;99.90;;;;;;5095596;28;20200;-80
2021/07/11 07:19:16;;;;;;;30.00;24.70;;;17.50;99.90;;;;;;5066802;28;20414;-80
2021/07/11 07:21:41;;;;;;;28.60;24.70;;;17.50;99.90;;;;;;5059309;28;20411;-80
2021/07/11 07:24:07;;;;;;;32.87;26.20;;;17.60;99.90;;;;;;5057892;28;20212;-81
2021/07/11 07:26:33;;;;;;;33.17;24.30;;;17.60;99.90;;;;;;5061562;28;20212;-82
2021/07/11 07:28:58;;;;;;;30.13;23.87;;;17.70;99.90;;;;;;5091469;28;20564;-81
2021/07/11 07:31:24;;;;;;;29.90;23.90;;;17.70;99.90;;;;;;5061811;28;20188;-81
2021/07/11 07:33:50;;;;;;;28.40;22.53;;;17.80;99.90;;;;;;5090421;28;20815;-82
2021/07/11 07:36:15;;;;;;;28.90;23.83;;;17.80;99.90;;;;;;5070067;28;20188;-82
2021/07/11 07:38:41;;;;;;;24.63;21.83;;;17.90;99.90;;;;;;5082330;28;20180;-82
2021/07/11 07:41:06;;;;;;;24.63;21.50;;;18.00;99.90;;;;;;5077708;28;20169;-82
2021/07/11 07:43:32;;;;;;;26.77;22.67;;;18.00;99.90;;;;;;5092082;28;20275;-81
2021/07/11 07:45:58;;;;;;;27.20;22.60;;;18.10;99.90;;;;;;5085247;28;20212;-80
2021/07/11 07:48:24;;;;;;;26.40;23.60;;;18.10;99.90;;;;;;5047357;28;20265;-80
2021/07/11 07:50:50;;;;;;;27.83;23.23;;;18.10;99.90;;;;;;5081020;28;20726;-80
2021/07/11 07:53:16;;;;;;;29.50;23.90;;;18.20;99.90;;;;;;5086966;28;22008;-81
2021/07/11 07:55:41;;;;;;;32.77;25.40;;;18.20;99.90;;;;;;5069940;28;21158;-81
2021/07/11 07:58:07;;;;;;;30.50;26.07;;;18.20;99.90;;;;;;5089565;28;20188;-82
2021/07/11 08:00:33;;;;;;;30.30;24.90;;;18.30;99.90;;;;;;5066024;28;20176;-82
2021/07/11 08:02:59;;;;;;;30.83;24.87;;;18.40;99.90;;;;;;5064445;28;20189;-81
2021/07/11 08:05:26;;;;;;;29.23;23.80;;;18.40;99.90;;;;;;5065611;28;20213;-82
2021/07/11 08:07:52;;;;;;;31.20;24.23;;;18.50;99.90;;;;;;5082745;28;21108;-80
2021/07/11 08:10:18;;;;;;;31.00;25.10;;;18.60;99.90;;;;;;5057538;28;20435;-80
2021/07/11 08:12:45;;;;;;;30.37;24.20;;;18.70;99.90;;;;;;5086076;28;20510;-82
2021/07/11 08:15:16;;;;;;;29.40;23.93;;;18.90;99.90;;;;;;5068766;28;20439;-82
2021/07/11 08:17:44;;;;;;;27.77;22.43;;;19.00;99.90;;;;;;5068716;28;20541;-81
2021/07/11 08:20:11;;;;;;;30.40;23.67;;;19.00;99.90;;;;;;5070925;28;20419;-81
2021/07/11 08:22:36;;;;;;;26.50;22.77;;;19.10;99.90;;;;;;5068567;28;20428;-81
2021/07/11 08:25:04;;;;;;;27.03;24.07;;;19.10;99.90;;;;;;5070794;28;20490;-82
2021/07/11 08:27:30;;;;;;;28.97;24.63;;;19.20;99.90;;;;;;5071257;28;20783;-80
2021/07/11 08:29:55;;;;;;;26.07;23.17;;;19.10;99.90;;;;;;5083596;28;20447;-82
2021/07/11 08:32:23;;;;;;;26.70;23.77;;;19.20;99.90;;;;;;5067956;28;20196;-81
2021/07/11 08:34:48;;;;;;;28.23;25.10;;;19.10;99.90;;;;;;5068852;28;20201;-82
2021/07/11 08:37:14;;;;;;;29.00;25.10;;;19.00;99.90;;;;;;5084116;28;20918;-80
2021/07/11 08:39:40;;;;;;;26.87;23.37;;;18.90;99.90;;;;;;5086212;28;20371;-82
2021/07/11 08:42:08;;;;;;;26.17;23.20;;;19.00;99.90;;;;;;5086162;28;20267;-82
2021/07/11 08:44:35;;;;;;;28.17;23.37;;;19.00;99.90;;;;;;5066651;28;20211;-82
2021/07/11 08:47:00;;;;;;;25.80;22.70;;;19.00;99.90;;;;;;5066777;28;20408;-81
2021/07/11 08:49:26;;;;;;;27.43;22.90;;;19.10;99.90;;;;;;5087055;28;20408;-81
2021/07/11 08:52:00;;;;;;;28.00;23.50;;;19.20;99.90;;;;;;5066020;28;20178;-82
2021/07/11 08:54:26;;;;;;;27.30;24.40;;;19.30;99.90;;;;;;5084883;28;20204;-81
2021/07/11 08:57:00;;;;;;;29.73;24.40;;;19.30;99.90;;;;;;5083364;28;20439;-81
2021/07/11 08:59:27;;;;;;;27.10;24.07;;;19.40;99.90;;;;;;5088086;28;20425;-81
2021/07/11 09:01:53;;;;;;;31.50;26.73;;;19.50;99.90;;;;;;5066296;28;20731;-81
2021/07/11 09:04:18;;;;;;;31.43;26.40;;;19.40;99.90;;;;;;5084044;28;20435;-82
2021/07/11 09:06:45;;;;;;;31.13;27.43;;;19.60;99.90;;;;;;5065352;28;20298;-82
2021/07/11 09:09:20;;;;;;;33.17;25.70;;;19.60;99.90;;;;;;5049736;28;20191;-80
2021/07/11 09:11:48;;;;;;;29.90;25.10;;;19.70;99.90;;;;;;5086191;28;20418;-81
2021/07/11 09:14:19;;;;;;;29.80;26.40;;;19.70;99.90;;;;;;5085634;28;20525;-81
2021/07/11 09:16:45;;;;;;;32.50;26.60;;;19.70;99.90;;;;;;5069573;28;20420;-81
2021/07/11 09:19:36;;;;;;;32.63;26.67;;;19.80;99.90;;;;;;5066546;28;20431;-81
2021/07/11 09:22:06;;;;;;;31.70;26.27;;;19.80;99.90;;;;;;5088818;28;20416;-81
2021/07/11 09:24:35;;;;;;;31.63;26.13;;;19.90;99.90;;;;;;5085043;28;20545;-80
2021/07/11 09:27:13;;;;;;;30.87;26.57;;;19.90;99.90;;;;;;5073645;28;20439;-81
2021/07/11 09:29:42;;;;;;;32.67;26.00;;;19.80;99.90;;;;;;5088827;28;20419;-80
2021/07/11 09:32:09;;;;;;;32.40;26.17;;;19.80;99.90;;;;;;5038845;28;20487;-81
2021/07/11 09:34:40;;;;;;;32.93;26.50;;;19.80;99.90;;;;;;5076415;28;21040;-81
2021/07/11 09:37:16;;;;;;;29.80;25.33;;;19.80;99.90;;;;;;5089024;28;20490;-80
2021/07/11 09:39:51;;;;;;;34.37;26.67;;;19.80;99.90;;;;;;5085903;28;20543;-82
2021/07/11 09:42:32;;;;;;;36.23;28.57;;;19.80;99.90;;;;;;5085083;28;20415;-82
2021/07/11 09:45:00;;;;;;;39.43;30.57;;;19.80;99.90;;;;;;5093920;28;20458;-81
2021/07/11 09:47:28;;;;;;;35.30;27.10;;;19.60;99.90;;;;;;5076800;28;20513;-81
2021/07/11 09:50:11;;;;;;;38.50;29.03;;;19.50;99.90;;;;;;5088196;28;20473;-82
2021/07/11 09:52:43;;;;;;;35.27;27.60;;;19.40;99.90;;;;;;5069880;28;20834;-82
2021/07/11 09:55:20;;;;;;;38.27;29.57;;;19.40;99.90;;;;;;5065868;28;20511;-81
2021/07/11 09:57:53;;;;;;;38.43;30.17;;;19.40;99.90;;;;;;5052131;28;20430;-81
2021/07/11 10:00:35;;;;;;;41.47;31.00;;;19.30;99.90;;;;;;5092084;28;20417;-82
2021/07/11 10:03:02;;;;;;;38.90;28.87;;;19.30;99.90;;;;;;5055770;28;20491;-83
2021/07/11 10:05:29;;;;;;;38.13;27.57;;;19.20;99.90;;;;;;5086612;28;20546;-83
2021/07/11 10:07:56;;;;;;;38.90;29.27;;;19.20;99.90;;;;;;5081316;28;20422;-82
2021/07/11 10:10:24;;;;;;;35.20;27.90;;;19.20;99.90;;;;;;5076678;28;20787;-82
2021/07/11 10:12:51;;;;;;;36.97;27.73;;;19.30;99.90;;;;;;5043988;28;20808;-82
2021/07/11 10:15:22;;;;;;;33.33;24.93;;;19.40;99.90;;;;;;5077017;28;20439;-83
2021/07/11 10:17:57;;;;;;;36.77;28.30;;;19.50;99.90;;;;;;5077768;28;20414;-82
2021/07/11 10:20:30;;;;;;;33.77;25.80;;;19.60;99.90;;;;;;5076221;28;20421;-82
2021/07/11 10:22:56;;;;;;;31.70;26.20;;;19.70;99.90;;;;;;5066190;28;20965;-82
2021/07/11 10:25:24;;;;;;;36.27;27.07;;;19.70;99.90;;;;;;5076788;28;20490;-83
2021/07/11 10:28:09;;;;;;;30.90;24.23;;;19.80;99.90;;;;;;5076806;28;20209;-82
2021/07/11 10:30:36;;;;;;;27.97;23.33;;;19.80;99.90;;;;;;5060934;28;20632;-83
2021/07/11 10:33:07;;;;;;;33.07;24.47;;;19.80;99.90;;;;;;5080620;28;20991;-82
2021/07/11 10:35:33;;;;;;;31.17;24.07;;;19.80;99.90;;;;;;5061985;28;20541;-83
2021/07/11 10:37:59;;;;;;;33.00;25.77;;;19.80;99.90;;;;;;5074940;28;20450;-82
2021/07/11 10:40:30;;;;;;;35.87;25.00;;;19.80;99.90;;;;;;5052524;28;20196;-84
2021/07/11 10:42:56;;;;;;;28.67;23.30;;;19.80;99.90;;;;;;5080952;28;20189;-82
2021/07/11 10:45:23;;;;;;;27.80;22.97;;;19.80;99.90;;;;;;5089551;28;21066;-83
2021/07/11 10:47:49;;;;;;;27.80;22.80;;;19.80;99.90;;;;;;5040803;28;20514;-83
2021/07/11 10:50:25;;;;;;;30.27;23.77;;;19.80;99.90;;;;;;5075100;28;20472;-82
2021/07/11 10:52:51;;;;;;;26.67;22.67;;;19.90;99.90;;;;;;5064224;28;20411;-82
2021/07/11 10:55:17;;;;;;;26.00;21.60;;;19.90;99.90;;;;;;5047555;28;20466;-82
2021/07/11 10:57:43;;;;;;;25.77;21.30;;;20.00;99.90;;;;;;5055515;28;20480;-83
2021/07/11 11:00:10;;;;;;;24.83;22.10;;;20.00;99.90;;;;;;5073838;28;20483;-83
2021/07/11 11:02:36;;;;;;;27.80;22.67;;;20.00;99.90;;;;;;5097653;28;20417;-84
2021/07/11 11:05:11;;;;;;;32.80;26.47;;;20.00;99.90;;;;;;5080476;28;20986;-83
2021/07/11 11:08:08;;;;;;;33.10;27.80;;;20.00;99.90;;;;;;5065608;28;20184;-83
2021/07/11 11:10:36;;;;;;;32.07;28.40;;;20.00;99.90;;;;;;5065253;28;20495;-83
2021/07/11 11:13:20;;;;;;;33.27;28.40;;;19.90;99.90;;;;;;5070341;28;20423;-81
2021/07/11 11:15:48;;;;;;;32.03;28.03;;;19.90;99.90;;;;;;5077330;28;20448;-83
2021/07/11 11:18:16;;;;;;;32.13;28.27;;;19.80;99.90;;;;;;5089061;28;20423;-83
2021/07/11 11:20:43;;;;;;;29.93;26.00;;;19.80;99.90;;;;;;5094292;28;20760;-83
2021/07/11 11:23:11;;;;;;;29.40;25.83;;;19.80;99.90;;;;;;5048330;28;20427;-83
2021/07/11 11:25:41;;;;;;;29.90;25.47;;;19.90;99.90;;;;;;5066189;28;20842;-83
2021/07/11 11:28:07;;;;;;;29.73;25.43;;;20.00;99.90;;;;;;5071447;28;20754;-83
2021/07/11 11:30:33;;;;;;;28.13;24.67;;;20.10;99.90;;;;;;5088869;28;20415;-83
2021/07/11 11:33:00;;;;;;;27.07;24.17;;;20.10;99.90;;;;;;5052543;28;20197;-82
2021/07/11 11:35:28;;;;;;;27.20;22.10;;;20.10;99.90;;;;;;5062865;28;20465;-82
2021/07/11 11:37:57;;;;;;;28.07;23.37;;;20.20;99.90;;;;;;5089043;28;20892;-83
2021/07/11 11:40:25;;;;;;;31.43;23.70;;;20.20;99.90;;;;;;5065297;28;20441;-82
2021/07/11 11:42:57;;;;;;;23.10;20.70;;;20.40;99.90;;;;;;5076231;28;20931;-82
2021/07/11 11:45:28;;;;;;;20.10;18.00;;;20.40;99.90;;;;;;5081450;28;21045;-80
2021/07/11 11:48:21;;;;;;;24.63;22.03;;;20.50;99.90;;;;;;5079973;28;20639;-82
2021/07/11 11:50:46;;;;;;;23.47;21.00;;;20.60;99.90;;;;;;5093813;28;20930;-83
2021/07/11 11:53:16;;;;;;;21.43;19.13;;;20.70;99.90;;;;;;5095241;28;20426;-82
2021/07/11 11:55:56;;;;;;;20.47;18.37;;;20.70;99.90;;;;;;5082309;28;20292;-82
2021/07/11 11:58:31;;;;;;;23.63;21.17;;;20.80;99.90;;;;;;5064145;28;20421;-84
2021/07/11 12:01:12;;;;;;;22.83;20.43;;;20.80;99.90;;;;;;5096901;28;20442;-83
2021/07/11 12:03:40;;;;;;;22.83;19.80;;;20.80;99.90;;;;;;5081547;28;20417;-83
2021/07/11 12:06:11;;;;;;;23.40;20.90;;;20.80;99.90;;;;;;5095548;28;20463;-82
2021/07/11 12:08:42;;;;;;;23.23;20.77;;;20.80;99.90;;;;;;5091927;28;20402;-81
2021/07/11 12:11:10;;;;;;;24.87;20.80;;;20.80;99.90;;;;;;5091362;28;20441;-82
2021/07/11 12:13:36;;;;;;;24.03;21.63;;;20.80;99.90;;;;;;5080497;28;20435;-83
2021/07/11 12:16:11;;;;;;;23.83;21.40;;;20.90;99.90;;;;;;5081300;28;20466;-84
2021/07/11 12:19:05;;;;;;;22.70;20.40;;;20.90;99.90;;;;;;5095294;28;20435;-80
2021/07/11 12:21:30;;;;;;;22.43;20.20;;;21.00;99.90;;;;;;5084726;28;20443;-82
2021/07/11 12:24:02;;;;;;;23.67;21.17;;;21.00;99.90;;;;;;5079248;28;20994;-84
2021/07/11 12:26:29;;;;;;;22.63;20.33;;;21.20;99.90;;;;;;5091417;28;20208;-82
2021/07/11 12:28:56;;;;;;;24.00;21.47;;;21.20;99.90;;;;;;5096097;28;20431;-81
2021/07/11 12:31:23;;;;;;;22.93;20.63;;;21.40;99.90;;;;;;5083280;28;20630;-84
2021/07/11 12:33:57;;;;;;;19.67;17.67;;;21.40;99.90;;;;;;5094965;28;20441;-82